createdAt,value
2018-05-24T06:47:33.671Z,18.47
2018-05-24T06:50:02.000Z,18.93
2018-05-24T06:52:29.547Z,18.73
2018-05-24T06:54:57.093Z,18.83
2018-05-24T06:57:24.672Z,19.12
2018-05-24T06:59:52.256Z,19.73
2018-05-24T07:02:33.982Z,20.05
2018-05-24T07:05:01.449Z,19.97
2018-05-24T07:07:28.952Z,20.38
2018-05-24T07:09:56.418Z,20.42
2018-05-24T07:12:23.901Z,20.73
2018-05-24T07:14:51.390Z,20.22
2018-05-24T07:17:18.854Z,20.53
2018-05-24T07:19:46.334Z,20.75
2018-05-24T07:22:13.795Z,20.89
2018-05-24T07:24:41.347Z,20.60
2018-05-24T07:27:08.764Z,20.87
2018-05-24T07:29:36.250Z,21.04
2018-05-24T07:32:03.725Z,20.67
2018-05-24T07:34:31.263Z,20.26
2018-05-24T07:36:58.730Z,20.20
2018-05-24T07:39:26.226Z,20.23
2018-05-24T07:41:53.699Z,20.72
2018-05-24T07:44:21.188Z,21.19
2018-05-24T07:46:48.654Z,21.39
2018-05-24T07:49:16.142Z,21.05
2018-05-24T07:51:43.623Z,21.32
2018-05-24T07:54:11.114Z,21.78
2018-05-24T07:56:38.582Z,21.97
2018-05-24T07:59:06.066Z,22.23
2018-05-24T08:01:33.605Z,22.34
2018-05-24T08:04:01.044Z,22.17
2018-05-24T08:06:28.506Z,21.62
2018-05-24T08:08:55.994Z,21.89
2018-05-24T08:11:23.457Z,21.95
2018-05-24T08:13:50.951Z,22.40
2018-05-24T08:16:18.418Z,23.12
2018-05-24T08:18:45.907Z,22.79
2018-05-24T08:21:13.374Z,22.71
2018-05-24T08:23:40.866Z,22.81
2018-05-24T08:26:08.337Z,22.92
2018-05-24T08:28:35.827Z,23.46
2018-05-24T08:31:03.305Z,23.85
2018-05-24T08:33:30.773Z,23.77
2018-05-24T08:35:58.262Z,23.46
2018-05-24T08:38:25.725Z,23.53
2018-05-24T08:40:53.221Z,23.78
2018-05-24T08:43:20.706Z,24.09
2018-05-24T08:45:48.200Z,23.69
2018-05-24T08:48:15.675Z,22.93
2018-05-24T08:50:43.162Z,22.99
2018-05-24T08:53:10.635Z,22.48
2018-05-24T08:55:38.119Z,22.68
2018-05-24T08:58:05.587Z,22.79
2018-05-24T09:00:33.073Z,22.63
2018-05-24T09:03:00.538Z,22.76
2018-05-24T09:05:28.030Z,22.67
2018-05-24T09:07:55.502Z,22.18
2018-05-24T09:10:22.989Z,22.42
2018-05-24T09:12:50.474Z,22.14
2018-05-24T09:15:17.962Z,22.41
2018-05-24T09:17:45.437Z,22.20
2018-05-24T09:20:12.994Z,22.31
2018-05-24T09:22:40.405Z,22.20
2018-05-24T09:25:07.890Z,22.52
2018-05-24T09:27:35.359Z,22.77
2018-05-24T09:30:02.850Z,22.90
2018-05-24T09:32:30.315Z,23.14
2018-05-24T09:34:57.810Z,23.28
2018-05-24T09:37:25.278Z,23.62
2018-05-24T09:39:52.763Z,23.29
2018-05-24T09:42:20.236Z,23.42
2018-05-24T09:44:47.730Z,23.73
2018-05-24T09:47:15.198Z,23.94
2018-05-24T09:49:42.694Z,23.82
2018-05-24T09:52:10.165Z,22.89
2018-05-24T09:54:37.631Z,23.08
2018-05-24T09:57:05.114Z,23.22
2018-05-24T09:59:32.591Z,23.56
2018-05-24T10:02:00.077Z,23.86
2018-05-24T10:04:27.553Z,24.05
2018-05-24T10:06:55.043Z,24.28
2018-05-24T10:09:22.514Z,24.16
2018-05-24T10:11:50.008Z,24.30
2018-05-24T10:14:17.470Z,23.89
2018-05-24T10:16:44.966Z,23.35
2018-05-24T10:19:12.439Z,23.09
2018-05-24T10:21:39.925Z,23.32
2018-05-24T10:24:07.391Z,23.49
2018-05-24T10:26:34.879Z,24.10
2018-05-24T10:29:02.359Z,24.07
2018-05-24T10:31:29.850Z,24.73
2018-05-24T10:33:57.318Z,24.90
2018-05-24T10:36:24.799Z,25.03
2018-05-24T10:38:52.263Z,24.69
2018-05-24T10:41:19.762Z,24.57
2018-05-24T10:43:47.253Z,24.26
2018-05-24T10:46:14.740Z,24.06
2018-05-24T10:48:42.210Z,24.13
2018-05-24T10:51:09.752Z,23.95
2018-05-24T10:53:37.205Z,24.24
2018-05-24T10:56:04.751Z,24.17
2018-05-24T10:58:32.186Z,24.05
2018-05-24T11:00:59.673Z,23.81
2018-05-24T11:03:27.212Z,24.07
2018-05-24T11:05:54.646Z,23.72
2018-05-24T11:08:22.113Z,23.32
2018-05-24T11:10:50.009Z,23.06
2018-05-24T11:13:17.491Z,22.95
2018-05-24T11:15:44.962Z,22.66
2018-05-24T11:18:12.489Z,22.87
2018-05-24T11:20:39.958Z,22.93
2018-05-24T11:23:07.446Z,23.12
2018-05-24T11:25:34.931Z,22.97
2018-05-24T11:28:02.431Z,23.13
2018-05-24T11:30:29.894Z,23.28
2018-05-24T11:32:57.386Z,23.36
2018-05-24T11:35:24.860Z,23.74
2018-05-24T11:37:52.350Z,24.22
2018-05-24T11:40:19.822Z,24.73
2018-05-24T11:42:47.311Z,24.91
2018-05-24T11:45:14.774Z,24.68
2018-05-24T11:47:42.275Z,24.85
2018-05-24T11:50:09.742Z,24.52
2018-05-24T11:52:37.226Z,24.13
2018-05-24T11:55:04.702Z,24.06
2018-05-24T11:57:32.182Z,24.11
2018-05-24T11:59:59.797Z,23.90
2018-05-24T12:02:27.398Z,24.34
2018-05-24T12:04:55.810Z,24.52
2018-05-24T12:07:23.305Z,23.97
2018-05-24T12:09:50.820Z,24.10
2018-05-24T12:12:18.283Z,24.07
2018-05-24T12:14:45.756Z,23.89
2018-05-24T12:17:13.267Z,24.25
2018-05-24T12:19:40.733Z,24.10
2018-05-24T12:22:08.213Z,24.10
2018-05-24T12:24:35.679Z,24.56
2018-05-24T12:27:03.174Z,24.90
2018-05-24T12:29:30.646Z,25.34
2018-05-24T12:31:58.131Z,25.48
2018-05-24T12:34:25.609Z,25.64
2018-05-24T12:36:53.073Z,25.75
2018-05-24T12:39:20.569Z,25.95
2018-05-24T12:41:48.067Z,26.20
2018-05-24T12:44:15.544Z,26.71
2018-05-24T12:46:43.006Z,26.81
2018-05-24T12:49:10.500Z,27.01
2018-05-24T12:51:37.976Z,27.02
2018-05-24T12:54:05.458Z,26.73
2018-05-24T12:56:32.921Z,25.78
2018-05-24T12:59:00.417Z,26.14
2018-05-24T13:01:27.893Z,26.19
2018-05-24T13:03:55.382Z,26.58
2018-05-24T13:06:22.845Z,26.67
2018-05-24T13:08:50.327Z,26.76
2018-05-24T13:11:17.891Z,26.84
2018-05-24T13:13:45.310Z,26.60
2018-05-24T13:16:12.778Z,26.85
2018-05-24T13:18:40.269Z,27.93
2018-05-24T13:21:19.159Z,28.01
2018-05-24T13:23:46.658Z,28.05
2018-05-24T13:26:14.135Z,28.30
2018-05-24T13:28:41.627Z,28.55
2018-05-24T13:31:09.110Z,28.42
2018-05-24T13:33:36.627Z,27.95
2018-05-24T13:36:04.095Z,28.15
2018-05-24T13:38:31.606Z,28.06
2018-05-24T13:40:59.081Z,28.19
2018-05-24T13:43:26.578Z,27.54
2018-05-24T13:45:54.050Z,27.70
2018-05-24T13:48:21.551Z,26.79
2018-05-24T13:50:49.018Z,27.37
2018-05-24T13:53:16.522Z,27.47
2018-05-24T13:55:43.989Z,27.30
2018-05-24T13:58:11.487Z,27.50
2018-05-24T14:00:38.966Z,27.89
2018-05-24T14:03:06.430Z,27.81
2018-05-24T14:05:33.936Z,27.80
2018-05-24T14:08:01.411Z,27.99
2018-05-24T14:10:28.914Z,27.59
2018-05-24T14:12:56.393Z,28.36
2018-05-24T14:15:23.886Z,28.85
2018-05-24T14:17:51.365Z,29.34
2018-05-24T14:20:18.873Z,29.72
2018-05-24T14:22:46.353Z,30.44
2018-05-24T14:25:13.849Z,30.04
2018-05-24T14:27:41.320Z,30.60
2018-05-24T14:30:08.823Z,30.16
2018-05-24T14:32:36.301Z,30.90
2018-05-24T14:35:03.794Z,30.93
2018-05-24T14:37:31.280Z,31.53
2018-05-24T14:39:58.778Z,30.66
2018-05-24T14:42:26.309Z,29.36
2018-05-24T14:44:54.208Z,28.24
2018-05-24T14:47:21.694Z,28.13
2018-05-24T14:49:49.275Z,28.22
2018-05-24T14:52:16.762Z,28.00
2018-05-24T14:54:44.261Z,27.98
2018-05-24T14:57:11.743Z,28.11
2018-05-24T14:59:39.250Z,28.87
2018-05-24T15:02:06.713Z,29.49
2018-05-24T15:04:34.212Z,29.81
2018-05-24T15:07:01.703Z,29.85
2018-05-24T15:09:29.202Z,29.68
2018-05-24T15:11:56.675Z,29.57
2018-05-24T15:14:24.166Z,30.54
2018-05-24T15:16:51.647Z,30.75
2018-05-24T15:19:19.148Z,30.32
2018-05-24T15:21:46.634Z,29.50
2018-05-24T15:24:14.129Z,29.80
2018-05-24T15:26:41.630Z,29.43
2018-05-24T15:29:09.116Z,28.91
2018-05-24T15:31:36.609Z,28.71
2018-05-24T15:34:04.091Z,28.50
2018-05-24T15:36:31.590Z,28.29
2018-05-24T15:38:59.064Z,28.93
2018-05-24T15:41:26.570Z,28.80
2018-05-24T15:43:54.051Z,29.15
2018-05-24T15:46:21.543Z,28.68
2018-05-24T15:48:50.081Z,28.46
2018-05-24T15:51:17.550Z,28.36
2018-05-24T15:53:45.018Z,28.14
2018-05-24T15:56:12.511Z,27.90
2018-05-24T15:58:41.982Z,27.07
2018-05-24T16:01:09.475Z,26.98
2018-05-24T16:03:36.954Z,27.09
2018-05-24T16:06:04.453Z,26.72
2018-05-24T16:08:31.930Z,26.55
2018-05-24T16:10:59.419Z,26.21
2018-05-24T16:13:26.897Z,26.09
2018-05-24T16:15:54.391Z,25.30
2018-05-24T16:18:21.862Z,25.29
2018-05-24T16:20:49.357Z,24.93
2018-05-24T16:23:16.837Z,24.31
2018-05-24T16:25:44.332Z,24.42
2018-05-24T16:28:11.810Z,24.26
2018-05-24T16:30:39.314Z,24.22
2018-05-24T16:33:06.799Z,24.25
2018-05-24T16:35:34.291Z,24.12
2018-05-24T16:38:01.762Z,24.07
2018-05-24T16:40:29.250Z,24.22
2018-05-24T16:42:56.715Z,24.27
2018-05-24T16:45:24.223Z,24.44
2018-05-24T16:47:51.690Z,24.41
2018-05-24T16:50:19.163Z,24.41
2018-05-24T16:52:46.667Z,24.46
2018-05-24T16:55:14.135Z,24.56
2018-05-24T16:57:41.625Z,24.92
2018-05-24T17:00:09.106Z,25.15
2018-05-24T17:02:36.606Z,25.20
2018-05-24T17:05:04.096Z,25.19
2018-05-24T17:07:31.597Z,24.92
2018-05-24T17:09:59.071Z,24.94
2018-05-24T17:12:26.589Z,24.59
2018-05-24T17:14:54.055Z,24.70
2018-05-24T17:17:21.538Z,24.49
2018-05-24T17:19:49.026Z,24.26
2018-05-24T17:22:16.527Z,24.30
2018-05-24T17:24:44.011Z,24.13
2018-05-24T17:27:11.507Z,23.94
2018-05-24T17:29:38.983Z,23.82
2018-05-24T17:32:06.481Z,23.68
2018-05-24T17:34:33.958Z,23.43
2018-05-24T17:37:01.451Z,23.34
2018-05-24T17:39:28.943Z,22.98
2018-05-24T17:41:56.449Z,22.77
2018-05-24T17:44:23.935Z,22.75
2018-05-24T17:46:51.437Z,22.77
2018-05-24T17:49:18.916Z,22.50
2018-05-24T17:51:46.422Z,22.46
2018-05-24T17:54:13.905Z,22.50
2018-05-24T17:56:41.406Z,22.53
2018-05-24T17:59:08.874Z,22.36
2018-05-24T18:01:36.378Z,22.30
2018-05-24T18:04:03.862Z,22.21
2018-05-24T18:06:31.372Z,22.14
2018-05-24T18:08:58.849Z,22.00
2018-05-24T18:11:26.336Z,21.98
2018-05-24T18:13:53.855Z,21.83
2018-05-24T18:16:21.320Z,21.79
2018-05-24T18:18:48.811Z,21.66
2018-05-24T18:21:16.310Z,21.71
2018-05-24T18:23:43.798Z,21.53
2018-05-24T18:26:11.278Z,21.53
2018-05-24T18:28:38.886Z,21.49
2018-05-24T18:31:06.352Z,21.48
2018-05-24T18:33:33.853Z,21.33
2018-05-24T18:36:01.376Z,21.30
2018-05-24T18:38:28.836Z,21.19
2018-05-24T18:40:56.320Z,21.16
2018-05-24T18:43:23.813Z,21.05
2018-05-24T18:45:51.303Z,21.05
2018-05-24T18:48:18.797Z,20.99
2018-05-24T18:50:46.272Z,20.88
2018-05-24T18:53:13.765Z,20.84
2018-05-24T18:55:41.243Z,20.76
2018-05-24T18:58:08.727Z,20.75
2018-05-24T19:00:36.193Z,20.75
2018-05-24T19:03:03.686Z,20.66
2018-05-24T19:05:31.161Z,20.57
2018-05-24T19:07:58.655Z,20.52
2018-05-24T19:10:26.125Z,20.51
2018-05-24T19:12:53.626Z,20.53
2018-05-24T19:15:21.087Z,20.49
2018-05-24T19:17:48.579Z,20.43
2018-05-24T19:20:16.048Z,20.44
2018-05-24T19:22:43.557Z,20.38
2018-05-24T19:25:11.040Z,20.39
2018-05-24T19:27:38.559Z,20.33
2018-05-24T19:30:06.029Z,20.19
2018-05-24T19:32:33.506Z,20.22
2018-05-24T19:35:01.006Z,20.08
2018-05-24T19:37:31.541Z,20.12
2018-05-24T19:39:59.022Z,20.08
2018-05-24T19:42:26.488Z,20.02
2018-05-24T19:44:53.987Z,19.92
2018-05-24T19:47:21.449Z,19.83
2018-05-24T19:49:49.736Z,19.83
2018-05-24T19:52:17.203Z,19.78
2018-05-24T19:54:44.690Z,19.87
2018-05-24T19:57:12.165Z,19.83
2018-05-24T19:59:39.658Z,19.87
2018-05-24T20:02:07.122Z,19.86
2018-05-24T20:04:34.618Z,19.86
2018-05-24T20:07:02.086Z,19.94
2018-05-24T20:09:29.570Z,19.94
2018-05-24T20:11:57.038Z,19.93
2018-05-24T20:14:24.534Z,19.96
2018-05-24T20:16:52.003Z,19.99
2018-05-24T20:19:19.490Z,19.92
2018-05-24T20:21:46.954Z,19.82
2018-05-24T20:24:14.438Z,19.76
2018-05-24T20:26:41.906Z,19.78
2018-05-24T20:29:09.385Z,19.81
2018-05-24T20:31:36.857Z,19.89
2018-05-24T20:34:05.330Z,19.85
2018-05-24T20:36:32.808Z,19.83
2018-05-24T20:39:00.372Z,19.82
2018-05-24T20:41:27.792Z,19.81
2018-05-24T20:43:55.310Z,19.80
2018-05-24T20:46:22.784Z,19.73
2018-05-24T20:48:50.241Z,19.68
2018-05-24T20:51:17.733Z,19.47
2018-05-24T20:53:45.197Z,19.31
2018-05-24T20:56:12.720Z,19.20
2018-05-24T20:58:40.182Z,19.12
2018-05-24T21:01:07.673Z,19.02
2018-05-24T21:03:35.146Z,18.96
2018-05-24T21:06:02.629Z,18.85
2018-05-24T21:08:30.098Z,18.70
2018-05-24T21:10:57.616Z,18.61
2018-05-24T21:13:25.086Z,18.59
2018-05-24T21:15:52.585Z,18.49
2018-05-24T21:18:20.049Z,18.35
2018-05-24T21:20:47.586Z,18.33
2018-05-24T21:23:15.068Z,18.28
2018-05-24T21:25:42.563Z,18.30
2018-05-24T21:28:10.031Z,18.29
2018-05-24T21:30:37.513Z,18.26
2018-05-24T21:33:04.982Z,18.22
2018-05-24T21:35:32.454Z,18.21
2018-05-24T21:37:59.971Z,18.18
2018-05-24T21:40:28.566Z,18.13
2018-05-24T21:42:56.096Z,18.09
2018-05-24T21:45:23.579Z,18.09
2018-05-24T21:47:51.065Z,18.02
2018-05-24T21:50:18.541Z,18.00
2018-05-24T21:52:46.878Z,17.96
2018-05-24T21:55:14.351Z,17.90
2018-05-24T21:57:41.835Z,17.81
2018-05-24T22:00:09.289Z,17.65
2018-05-24T22:02:36.785Z,17.57
2018-05-24T22:05:04.250Z,17.51
2018-05-24T22:07:31.768Z,17.45
2018-05-24T22:09:59.225Z,17.41
2018-05-24T22:12:26.726Z,17.45
2018-05-24T22:14:54.197Z,17.43
2018-05-24T22:17:21.661Z,17.46
2018-05-24T22:19:49.146Z,17.49
2018-05-24T22:22:16.616Z,17.58
2018-05-24T22:24:44.105Z,17.62
2018-05-24T22:27:11.591Z,17.60
2018-05-24T22:29:39.081Z,17.62
2018-05-24T22:32:06.554Z,17.63
2018-05-24T22:34:34.059Z,17.59
2018-05-24T22:37:01.545Z,17.58
2018-05-24T22:39:29.050Z,17.44
2018-05-24T22:41:56.535Z,17.45
2018-05-24T22:44:24.025Z,17.47
2018-05-24T22:46:51.613Z,17.44
2018-05-24T22:49:19.115Z,17.42
2018-05-24T22:51:46.600Z,17.34
2018-05-24T22:54:14.119Z,17.31
2018-05-24T22:56:41.630Z,17.35
2018-05-24T22:59:09.094Z,17.34
2018-05-24T23:01:36.596Z,17.45
2018-05-24T23:04:04.067Z,17.48
2018-05-24T23:06:31.562Z,17.47
2018-05-24T23:08:59.063Z,17.30
2018-05-24T23:11:26.557Z,17.15
2018-05-24T23:13:54.034Z,17.02
2018-05-24T23:16:21.530Z,16.99
2018-05-24T23:18:49.013Z,16.92
2018-05-24T23:21:16.516Z,16.85
2018-05-24T23:23:44.005Z,16.91
2018-05-24T23:26:11.502Z,16.85
2018-05-24T23:28:38.989Z,16.82
2018-05-24T23:31:06.506Z,16.74
2018-05-24T23:33:33.974Z,16.64
2018-05-24T23:36:01.455Z,16.61
2018-05-24T23:38:28.953Z,16.50
2018-05-24T23:40:56.434Z,16.49
2018-05-24T23:43:23.928Z,16.41
2018-05-24T23:45:51.417Z,16.41
2018-05-24T23:48:18.910Z,16.42
2018-05-24T23:50:46.393Z,16.43
2018-05-24T23:53:13.890Z,16.44
2018-05-24T23:55:41.370Z,16.36
2018-05-24T23:58:08.866Z,16.34
